Hovedside
METAR-TAF:

METAR-TAF

Lufthavner :

Björneborg lufthavn

Björneborg, Finland

breddegrad: 61-28N, lengdegrad: 021-48E, høyde over havet: 13 m

Gjeldene værobservasjon

Denne rapporten ble laget for 14 minutter siden, klokken 01:20 UTC
Vind 5 kt fra Øst-nordøst, skiftende mellom Nordøst og Øst
Temperatur 1°C
Luftfuktighet 93%
Trykk 1009 hPa
Sikt 10 km eller mer

METAR: EFPO 110120Z AUTO 06005KT 040V100 9999 OVC007/// 01/00 Q1009

Tid: 03:34 (01:34 UTC)

Varsel

Denne rapporten ble laget for 14 timer og 3 minutter siden, klokken 11:31 UTC
Varsel gyldig fra 10. klokken 12 UTC til 10. klokken 15 UTC
Vind 7 kt fra Øst
Sikt 10 km eller mer
Overskyet i en høyde av 800 ft
Sannsynlighet 30%
fra 10. klokken 12 UTC til 10. klokken 15 UTC
Sikt: 4000 m
dis

TAF: EFPO 101131Z 1012/1015 09007KT 9999 OVC008 PROB30 1012/1015 4000 BR

Værobservasjoner og værvarsel for over 4000 flyplasser (METAR- og TAF-rapporter).

Tilgjengelige stasjoner er representert av de røde og gule prikkene på kartet.

Hold musepekeren over prikken for å se navnet på stasjonen.

Klikk så for å se værobservasjoner og -varsler.

For å forandre kartet kan du klikke på den grønne knappen med svart kryss for å zoome inn, på den grønne knappen med strek for å zoome ut, eller på de grønne pilene for å se tilstøtende kart.


METAR-TAF: